Gyor, Hungary
Current Conditions -  °F | °C
As of 7:45 PM on Thursday 30 Oct 2014 (Local Time) from LHPR Reporting Station
Haze Haze  
Wind Chill: 35°   Ceiling: Unl
Heat Index: 39°   Visibility: 1.5mi
Dew Point: 39°   Wind: 6mph
Humidity: 100%   Direction: 250°WSW
Pressure: 30.33"   Gusts: NA
Location:  47.69°N, 17.64°E
Report Text: LHPR 301745Z 25005KT 2500 BR NSC 04/04 Q1027
Loading
Personal Weather Stations






























Interactive Weather Map
Tropical Storm Tracking
New forecast layout! Learn more

10-Day Weather Forecast

Advertisements
Track Severe Weather on mobile